PST,Max TemperatureF,Mean TemperatureF,Min TemperatureF,Max Dew PointF,MeanDew PointF,Min DewpointF,Max Humidity, Mean Humidity, Min Humidity, Max Sea Level PressureIn, Mean Sea Level PressureIn, Min Sea Level PressureIn, Max VisibilityMiles, Mean VisibilityMiles, Min VisibilityMiles, Max Wind SpeedMPH, Mean Wind SpeedMPH, Max Gust SpeedMPH,PrecipitationIn, CloudCover, Events, WindDirDegrees
2012-12-1,53,49,45,48,46,42,100,86,71,29.75,29.60,29.31,10,9,2,24,11,32,0.74,6,Rain,165
2012-12-2,51,48,45,47,45,41,93,87,80,29.95,29.63,29.27,10,9,5,22,13,29,0.58,7,Rain,177
2012-12-3,55,51,47,45,44,42,93,77,61,30.06,29.94,29.66,10,10,6,22,12,30,0.32,8,Rain,170
2012-12-4,58,53,47,55,52,44,100,90,80,29.99,29.79,29.60,10,7,2,28,12,38,0.93,8,Rain,193
2012-12-5,52,44,36,45,41,36,100,77,54,30.25,30.19,30.02,10,10,10,18,3,18,T,5,Rain,166
2012-12-6,49,43,36,43,41,37,100,89,77,30.26,30.23,30.20,10,10,5,17,11,22,0.03,6,Rain,174
2012-12-7,49,46,43,46,43,38,93,88,83,30.24,30.19,30.14,10,10,4,18,9,23,0.07,7,Rain,199
2012-12-8,46,43,39,43,41,38,100,91,82,30.37,30.30,30.24,10,10,7,9,3,10,0.10,8,Rain,175
2012-12-9,49,45,40,46,43,39,100,90,80,30.40,30.37,30.35,10,9,5,16,7,22,0.02,8,Rain,160
2012-12-10,51,48,45,48,46,45,100,90,80,30.44,30.36,30.13,10,10,2,10,2,17,T,8,Fog-Rain,174
2012-12-11,48,44,39,46,43,38,100,93,86,30.10,29.81,29.63,10,9,3,21,10,28,0.24,7,Rain,178
2012-12-12,47,42,36,41,39,37,100,88,76,30.02,29.87,29.73,10,10,10,14,5,17,T,6,Rain,174
2012-12-13,42,37,31,38,35,30,100,91,82,30.06,30.00,29.86,10,6,0,8,2,10,0.00,5,Fog,155
2012-12-14,46,41,35,41,38,34,100,88,76,29.98,29.91,29.84,10,9,5,13,6,17,0.23,6,Rain,164
2012-12-15,42,38,33,39,37,34,100,93,85,29.92,29.78,29.61,10,9,5,29,10,38,0.29,6,Rain,176
2012-12-16,52,46,39,47,41,38,96,85,74,29.86,29.54,29.18,10,9,4,35,17,46,0.53,8,Rain,177
2012-12-17,49,42,34,42,36,33,92,86,79,30.02,29.82,29.34,10,10,7,32,10,45,0.36,6,Rain,200
2012-12-18,39,37,34,36,34,33,100,93,85,30.09,30.04,30.00,10,10,4,18,12,24,0.04,7,Rain-Snow,176
2012-12-19,49,43,36,39,36,33,92,77,61,30.04,29.80,29.60,10,10,10,35,19,49,0.03,8,Rain,171
2012-12-20,49,40,31,40,37,32,100,83,66,29.83,29.73,29.59,10,9,4,24,12,38,1.09,6,Rain,178
2012-12-21,46,39,31,42,38,30,100,93,86,29.78,29.71,29.59,10,8,2,12,4,15,0.12,6,Rain,146
2012-12-22,46,43,40,43,39,36,100,88,76,29.79,29.62,29.52,10,6,0,30,13,40,0.20,7,Fog-Rain,183
2012-12-23,42,40,38,41,39,37,100,91,82,29.92,29.75,29.61,10,9,5,17,7,22,0.63,7,Rain,170
2012-12-24,46,42,38,41,39,37,100,93,86,30.20,30.12,29.95,10,10,10,15,7,20,0.05,6,Rain,163
2012-12-25,48,43,38,45,41,37,100,93,86,30.00,29.74,29.64,10,8,2,15,6,18,0.77,8,Fog-Rain,128
2012-12-26,47,44,40,43,41,39,96,86,76,30.05,29.87,29.71,10,10,10,13,5,17,0.01,8,Rain,203
2012-12-27,46,42,37,39,38,35,100,86,71,30.19,30.15,30.06,10,10,10,14,6,17,0.01,6,Rain,159
2012-12-28,43,40,37,38,37,35,100,91,82,30.16,30.13,30.11,10,10,7,6,1,7,T,7,,15
2012-12-29,42,36,30,37,33,29,100,87,73,30.24,30.19,30.15,10,9,7,6,1,10,0.01,7,Rain,13
2012-12-30,42,34,26,37,32,27,100,84,67,30.31,30.27,30.21,10,8,4,9,3,15,0.00,5,,345
2012-12-31,38,34,30,34,32,27,100,93,85,30.40,30.31,30.25,10,7,1,9,3,,T,7,Snow,13